Time;durP1;ratioP1;P1;durP2;ratioP2;P2;SDS_P1;SDS_P2;PMS_P1;PMS_P2;Temp;Humidity;BMP_temperature;BMP_pressure;BME280_temperature;BME280_humidity;BME280_pressure;Samples;Min_cycle;Max_cycle;Signal;HPM_P1;HPM_P2
2022/06/24 00:02:17;;;;;;;38.67;17.98;;;;;;;19.87;90.29;100523.81;5093443;28;20382;-51
2022/06/24 00:04:50;;;;;;;32.83;16.38;;;;;;;19.88;89.00;100481.97;5094404;28;20112;-51
2022/06/24 00:07:16;;;;;;;29.63;14.73;;;;;;;19.98;87.27;100481.84;5093387;28;20016;-51
2022/06/24 00:09:43;;;;;;;33.95;17.02;;;;;;;20.07;87.11;100490.38;5094163;28;20487;-50
2022/06/24 00:12:12;;;;;;;35.90;14.63;;;;;;;20.15;86.51;100507.72;5094019;28;20089;-51
2022/06/24 00:14:39;;;;;;;25.40;15.48;;;;;;;20.22;86.92;100540.78;5093589;28;20282;-51
2022/06/24 00:17:06;;;;;;;33.28;15.63;;;;;;;20.25;86.93;100579.13;5094208;28;20107;-51
2022/06/24 00:19:34;;;;;;;;;;;;;;;20.26;86.85;100605.25;5094695;28;20111;-51
2022/06/24 00:22:07;;;;;;;;;;;;;;;20.19;89.66;100606.22;5093731;28;19990;-47
2022/06/24 00:24:35;;;;;;;53.78;29.90;;;;;;;19.95;95.38;100616.13;5093876;28;20355;-50
2022/06/24 00:27:00;;;;;;;73.60;35.10;;;;;;;19.78;98.86;100631.13;5093745;28;20020;-51
2022/06/24 00:29:29;;;;;;;89.00;41.42;;;;;;;19.62;100.00;100643.53;5093222;28;20038;-48
2022/06/24 00:32:05;;;;;;;106.53;47.92;;;;;;;19.51;100.00;100661.91;5093830;28;20058;-48
2022/06/24 00:34:33;;;;;;;115.05;53.78;;;;;;;19.36;100.00;100666.44;5093951;28;20103;-51
2022/06/24 00:37:18;;;;;;;102.22;53.50;;;;;;;19.24;100.00;100679.63;5093110;28;20103;-49
2022/06/24 00:39:43;;;;;;;109.32;53.95;;;;;;;19.11;100.00;100691.94;5093609;28;20024;-52
2022/06/24 00:42:09;;;;;;;93.40;46.47;;;;;;;18.99;100.00;100700.72;5092759;28;20037;-52
2022/06/24 00:44:45;;;;;;;78.47;38.75;;;;;;;18.85;100.00;100694.69;5093755;28;20368;-54
2022/06/24 00:47:14;;;;;;;65.93;35.83;;;;;;;18.74;100.00;100687.78;5093377;28;20095;-56
2022/06/24 00:49:39;;;;;;;64.90;36.03;;;;;;;18.69;100.00;100670.44;5092871;28;20020;-56
2022/06/24 00:52:08;;;;;;;51.47;28.83;;;;;;;18.54;100.00;100668.78;5093541;28;20028;-55
2022/06/24 00:54:34;;;;;;;29.73;14.13;;;;;;;18.28;100.00;100667.19;5093655;28;20028;-56
2022/06/24 00:56:59;;;;;;;19.48;9.25;;;;;;;18.07;100.00;100665.56;5092569;28;20081;-56
2022/06/24 00:59:25;;;;;;;12.70;7.07;;;;;;;17.82;100.00;100673.44;5093249;28;20127;-56
2022/06/24 01:01:51;;;;;;;16.23;7.22;;;;;;;17.65;100.00;100670.00;5093403;28;20024;-56
2022/06/24 01:04:16;;;;;;;20.63;7.70;;;;;;;17.52;99.69;100666.56;5092127;28;20088;-56
2022/06/24 01:06:44;;;;;;;18.30;7.90;;;;;;;17.42;100.00;100650.94;5093523;28;20020;-56
2022/06/24 01:09:11;;;;;;;14.57;7.22;;;;;;;17.31;100.00;100644.88;5093243;28;20028;-56
2022/06/24 01:11:41;;;;;;;12.37;6.10;;;;;;;17.26;100.00;100644.03;5092590;28;20015;-57
2022/06/24 01:14:07;;;;;;;13.93;4.82;;;;;;;17.09;100.00;100621.50;5093010;28;20301;-56
2022/06/24 01:16:33;;;;;;;13.02;4.82;;;;;;;17.00;100.00;100620.63;5093165;28;20024;-56
2022/06/24 01:19:01;;;;;;;11.23;4.65;;;;;;;16.86;100.00;100608.47;5092121;28;20093;-56
2022/06/24 01:21:44;;;;;;;10.82;4.80;;;;;;;16.84;100.00;100607.56;5093209;28;20023;-57
2022/06/24 01:24:15;;;;;;;11.63;4.50;;;;;;;16.69;100.00;100611.03;5092759;28;20020;-56
2022/06/24 01:26:44;;;;;;;9.98;3.88;;;;;;;16.63;100.00;100605.84;5092469;28;20028;-56
2022/06/24 01:29:10;;;;;;;9.65;3.70;;;;;;;16.56;100.00;100599.75;5092712;28;20030;-56
2022/06/24 01:31:38;;;;;;;11.77;3.60;;;;;;;16.51;100.00;100600.63;5092254;28;20028;-56
2022/06/24 01:34:05;;;;;;;11.10;4.05;;;;;;;16.49;100.00;100604.94;5092948;28;20035;-56
2022/06/24 01:36:30;;;;;;;10.35;3.75;;;;;;;16.42;100.00;100602.34;5093045;28;20028;-57
2022/06/24 01:38:55;;;;;;;11.75;3.47;;;;;;;16.41;100.00;100602.31;5092035;28;20025;-56
2022/06/24 01:41:21;;;;;;;11.52;3.58;;;;;;;16.41;100.00;100608.41;5092712;28;20379;-56
2022/06/24 01:43:46;;;;;;;6.35;3.50;;;;;;;16.40;100.00;100600.63;5092843;28;20055;-56
2022/06/24 01:46:12;;;;;;;7.22;3.80;;;;;;;16.39;100.00;100584.13;5091667;28;20020;-56
2022/06/24 01:48:39;;;;;;;7.95;4.00;;;;;;;16.38;100.00;100571.97;5092985;28;20108;-56
2022/06/24 01:51:06;;;;;;;8.57;3.80;;;;;;;16.36;100.00;100563.31;5095011;28;20032;-56
2022/06/24 01:53:31;;;;;;;8.13;4.05;;;;;;;16.39;100.00;100575.47;5095959;28;20451;-56
2022/06/24 01:55:56;;;;;;;7.63;3.28;;;;;;;16.32;100.00;100577.19;5096717;28;20105;-56
2022/06/24 01:58:22;;;;;;;6.70;3.40;;;;;;;16.31;100.00;100575.47;5096547;28;20492;-56
2022/06/24 02:00:47;;;;;;;8.32;3.72;;;;;;;16.29;100.00;100574.56;5095979;28;20039;-56
2022/06/24 02:03:12;;;;;;;8.13;3.38;;;;;;;16.25;100.00;100567.63;5096729;28;20524;-56
2022/06/24 02:05:39;;;;;;;10.30;5.00;;;;;;;16.21;100.00;100565.91;5096498;28;20031;-56
2022/06/24 02:08:04;;;;;;;8.93;3.72;;;;;;;16.18;100.00;100566.75;5095820;28;20036;-56
2022/06/24 02:13:29;;;;;;;11.05;3.45;;;;;;;16.15;100.00;100565.88;5096419;28;20390;-56
2022/06/24 02:16:04;;;;;;;11.60;3.70;;;;;;;16.15;100.00;100568.50;5095969;28;20030;-56
2022/06/24 02:18:31;;;;;;;7.45;4.20;;;;;;;16.12;100.00;100562.41;5096543;28;20073;-56
2022/06/24 02:20:58;;;;;;;9.30;3.58;;;;;;;16.13;100.00;100564.16;5095440;28;20856;-56
2022/06/24 02:23:23;;;;;;;8.32;3.65;;;;;;;16.16;100.00;100562.44;5096257;28;20054;-56
2022/06/24 02:25:49;;;;;;;8.07;3.55;;;;;;;16.15;100.00;100561.53;5096215;28;20036;-56
2022/06/24 02:28:16;;;;;;;14.57;3.58;;;;;;;16.16;100.00;100567.63;5095413;28;20024;-56
2022/06/24 02:30:42;;;;;;;13.55;4.10;;;;;;;16.17;100.00;100564.16;5096379;28;20028;-56
2022/06/24 02:33:09;;;;;;;9.07;4.28;;;;;;;16.20;100.00;100569.38;5095992;28;20028;-56
2022/06/24 02:35:35;;;;;;;15.07;4.60;;;;;;;16.21;100.00;100571.97;5095429;28;20028;-56
2022/06/24 02:38:00;;;;;;;8.65;4.22;;;;;;;16.27;100.00;100582.38;5096077;28;20028;-56
2022/06/24 02:43:13;;;;;;;10.23;4.68;;;;;;;16.33;100.00;100554.66;5095403;28;20047;-56
2022/06/24 02:45:41;;;;;;;10.18;4.53;;;;;;;16.28;100.00;100549.44;5096026;28;20023;-56
2022/06/24 02:48:07;;;;;;;10.50;5.10;;;;;;;16.32;100.00;100561.59;5095520;28;20043;-56
2022/06/24 02:50:44;;;;;;;13.15;5.13;;;;;;;16.38;100.00;100564.19;5095048;28;20028;-56
2022/06/24 02:53:10;;;;;;;8.23;4.55;;;;;;;16.38;100.00;100558.13;5095752;28;20122;-56
2022/06/24 02:55:38;;;;;;;11.23;5.00;;;;;;;16.38;100.00;100555.53;5095707;28;20042;-56
2022/06/24 02:58:04;;;;;;;;;;;;;;;16.46;100.00;100549.47;5094986;28;20048;-56
2022/06/24 03:00:29;;;;;;;10.38;4.70;;;;;;;16.39;100.00;100542.50;5095741;28;19919;-56
2022/06/24 03:02:54;;;;;;;11.88;6.25;;;;;;;16.38;100.00;100543.38;5094611;28;20028;-56
2022/06/24 03:05:20;;;;;;;18.83;6.47;;;;;;;16.35;100.00;100538.19;5095283;28;20532;-56
2022/06/24 03:07:45;;;;;;;13.90;7.10;;;;;;;16.33;100.00;100526.91;5095751;28;20488;-56
2022/06/24 03:10:10;;;;;;;14.65;7.72;;;;;;;16.31;100.00;100518.25;5094378;28;20020;-56
2022/06/24 03:12:36;;;;;;;13.25;7.43;;;;;;;16.31;100.00;100515.66;5095480;28;20016;-56
2022/06/24 03:15:01;;;;;;;12.32;7.53;;;;;;;16.29;100.00;100506.97;5095162;28;20024;-56
2022/06/24 03:17:26;;;;;;;15.50;7.20;;;;;;;16.28;100.00;100505.22;5094464;28;20037;-56
2022/06/24 03:19:51;;;;;;;11.35;6.63;;;;;;;16.27;100.00;100503.50;5095223;28;20032;-56
2022/06/24 03:22:17;;;;;;;15.27;7.10;;;;;;;16.25;100.00;100502.63;5094740;28;20027;-56
2022/06/24 03:24:42;;;;;;;14.35;7.57;;;;;;;16.24;100.00;100498.28;5094397;28;20079;-56
2022/06/24 03:27:07;;;;;;;13.85;7.68;;;;;;;16.24;100.00;100490.50;5094935;28;20020;-56
2022/06/24 03:29:33;;;;;;;13.63;7.68;;;;;;;16.23;100.00;100488.75;5095086;28;20475;-56
2022/06/24 03:31:58;;;;;;;20.40;9.88;;;;;;;16.23;100.00;100484.44;5094258;28;20024;-55
2022/06/24 03:34:23;;;;;;;13.93;9.05;;;;;;;16.23;100.00;100487.03;5094732;28;20034;-55
2022/06/24 03:36:49;;;;;;;20.75;9.18;;;;;;;16.22;100.00;100479.25;5095108;28;20349;-55
2022/06/24 03:39:14;;;;;;;16.35;9.25;;;;;;;16.22;100.00;100479.25;5093860;28;20023;-55
2022/06/24 03:41:40;;;;;;;19.80;9.55;;;;;;;16.20;100.00;100476.63;5094879;28;20028;-55
2022/06/24 03:44:05;;;;;;;15.48;9.20;;;;;;;16.23;100.00;100487.03;5094573;28;20421;-55
2022/06/24 03:46:30;;;;;;;15.35;8.15;;;;;;;16.24;100.00;100493.97;5093895;28;20028;-54
2022/06/24 03:48:55;;;;;;;16.60;8.93;;;;;;;16.31;100.00;100487.03;5094430;28;20025;-55
2022/06/24 03:51:21;;;;;;;16.85;9.35;;;;;;;16.31;100.00;100489.63;5094621;28;20046;-54
2022/06/24 03:53:46;;;;;;;17.77;9.40;;;;;;;16.33;100.00;100482.69;5093928;28;20035;-56
2022/06/24 03:56:11;;;;;;;16.52;9.10;;;;;;;16.30;100.00;100478.34;5094371;28;20056;-56
2022/06/24 03:58:37;;;;;;;17.02;8.77;;;;;;;16.32;100.00;100483.56;5094429;28;20556;-55
2022/06/24 04:01:03;;;;;;;17.48;10.10;;;;;;;16.38;100.00;100498.31;5093515;28;20032;-55
2022/06/24 04:03:29;;;;;;;21.05;10.93;;;;;;;16.41;100.00;100501.78;5094213;28;20456;-55
2022/06/24 04:05:54;;;;;;;16.40;9.52;;;;;;;16.39;100.00;100498.28;5094044;28;20107;-55
2022/06/24 04:08:19;;;;;;;17.02;10.20;;;;;;;16.40;100.00;100505.25;5093606;28;20024;-55
2022/06/24 04:10:45;;;;;;;19.95;10.35;;;;;;;16.44;100.00;100522.56;5094240;28;20024;-56
2022/06/24 04:13:10;;;;;;;19.45;10.95;;;;;;;16.46;100.00;100520.84;5092790;28;20028;-56
2022/06/24 04:15:35;;;;;;;23.23;11.50;;;;;;;16.51;100.00;100527.78;5094133;28;20027;-56
2022/06/24 04:18:01;;;;;;;18.58;11.90;;;;;;;16.52;100.00;100529.53;5093956;28;20027;-56
2022/06/24 04:20:26;;;;;;;20.90;12.40;;;;;;;16.53;100.00;100544.28;5093114;28;20052;-56
2022/06/24 04:22:51;;;;;;;23.38;13.63;;;;;;;16.52;100.00;100546.00;5094245;28;20105;-55
2022/06/24 04:25:17;;;;;;;27.25;12.82;;;;;;;16.52;100.00;100546.00;5093661;28;20035;-56
2022/06/24 04:27:43;;;;;;;22.60;12.95;;;;;;;16.53;100.00;100549.47;5093243;28;20016;-56
2022/06/24 04:30:10;;;;;;;28.58;14.02;;;;;;;16.56;100.00;100541.66;5093744;28;20027;-56
2022/06/24 04:32:35;;;;;;;30.05;13.75;;;;;;;16.58;100.00;100540.78;5093726;28;20089;-56
2022/06/24 04:35:01;;;;;;;25.25;13.18;;;;;;;16.58;100.00;100550.34;5093052;28;20032;-56
2022/06/24 04:37:26;;;;;;;23.85;13.68;;;;;;;16.59;100.00;100537.31;5093888;28;20030;-56
2022/06/24 04:39:51;;;;;;;22.73;13.63;;;;;;;16.65;100.00;100541.66;5093865;28;20459;-56
2022/06/24 04:42:17;;;;;;;31.95;14.65;;;;;;;16.69;100.00;100532.97;5092777;28;20024;-56
2022/06/24 04:44:42;;;;;;;23.52;14.40;;;;;;;16.70;100.00;100539.91;5093924;28;20059;-56
2022/06/24 04:47:07;;;;;;;26.83;14.65;;;;;;;16.73;100.00;100542.53;5093413;28;20442;-56
2022/06/24 04:49:33;;;;;;;25.38;14.65;;;;;;;16.76;100.00;100537.31;5092771;28;20426;-56
2022/06/24 04:51:59;;;;;;;26.48;14.68;;;;;;;16.79;100.00;100529.50;5093555;28;20345;-56
2022/06/24 04:54:24;;;;;;;26.88;14.65;;;;;;;16.84;100.00;100531.25;5093509;28;20032;-56
2022/06/24 04:56:50;;;;;;;27.42;14.00;;;;;;;16.87;100.00;100532.09;5092808;28;20031;-56
2022/06/24 04:59:15;;;;;;;29.10;14.98;;;;;;;16.90;100.00;100520.78;5093001;28;20111;-56
2022/06/24 05:01:40;;;;;;;25.58;15.50;;;;;;;16.96;100.00;100531.25;5093327;28;20024;-56
2022/06/24 05:04:06;;;;;;;27.98;15.27;;;;;;;16.95;100.00;100537.31;5092227;28;20079;-56
2022/06/24 05:06:31;;;;;;;33.30;18.15;;;;;;;16.93;100.00;100541.66;5093145;28;20035;-56
2022/06/24 05:08:56;;;;;;;32.35;18.50;;;;;;;16.97;100.00;100542.53;5093255;28;20479;-56
2022/06/24 05:11:22;;;;;;;31.63;17.67;;;;;;;16.95;100.00;100540.81;5092465;28;20073;-56
2022/06/24 05:13:47;;;;;;;39.45;20.02;;;;;;;16.98;100.00;100547.75;5093310;28;20386;-56
2022/06/24 05:16:12;;;;;;;32.75;19.00;;;;;;;16.94;100.00;100546.88;5092862;28;20063;-56
2022/06/24 05:18:38;;;;;;;33.38;20.55;;;;;;;16.93;100.00;100541.66;5092266;28;20024;-56
2022/06/24 05:21:03;;;;;;;35.58;20.33;;;;;;;16.95;100.00;100534.69;5093130;28;20020;-56
2022/06/24 05:23:29;;;;;;;36.72;21.08;;;;;;;16.99;100.00;100531.25;5092214;28;20024;-56
2022/06/24 05:25:54;;;;;;;38.17;21.65;;;;;;;17.04;100.00;100533.81;5092148;28;20058;-56
2022/06/24 05:28:19;;;;;;;33.55;20.20;;;;;;;17.06;100.00;100543.38;5092827;28;20050;-56
2022/06/24 05:30:45;;;;;;;32.42;19.58;;;;;;;17.07;100.00;100542.50;5092221;28;20055;-56
2022/06/24 05:33:10;;;;;;;34.20;19.58;;;;;;;17.08;100.00;100545.97;5092537;28;20043;-56
2022/06/24 05:35:36;;;;;;;35.38;19.83;;;;;;;17.07;100.00;100550.31;5093174;28;20464;-56
2022/06/24 05:38:01;;;;;;;32.58;19.08;;;;;;;17.08;100.00;100557.25;5092142;28;20165;-56
2022/06/24 05:40:27;;;;;;;34.38;19.10;;;;;;;17.04;100.00;100558.16;5092870;28;20020;-56
2022/06/24 05:42:52;;;;;;;35.90;19.98;;;;;;;17.03;100.00;100553.81;5092963;28;20150;-56
2022/06/24 05:45:18;;;;;;;31.83;19.60;;;;;;;17.00;100.00;100551.19;5091740;28;20028;-56
2022/06/24 05:47:43;;;;;;;44.35;21.77;;;;;;;17.00;100.00;100545.97;5092725;28;20032;-56
2022/06/24 05:50:09;;;;;;;32.97;21.15;;;;;;;17.04;100.00;100545.13;5092664;28;20056;-56
2022/06/24 05:55:18;;;;;;;42.47;23.95;;;;;;;17.00;100.00;100532.09;5092725;28;20031;-56
2022/06/24 05:57:43;;;;;;;43.00;25.17;;;;;;;17.01;100.00;100539.91;5092519;28;20040;-56
2022/06/24 06:00:09;;;;;;;45.40;25.48;;;;;;;16.98;100.00;100544.25;5091751;28;20042;-56
2022/06/24 06:02:35;;;;;;;48.30;26.00;;;;;;;17.02;100.00;100554.66;5092890;28;20016;-56
2022/06/24 06:05:00;;;;;;;43.17;25.27;;;;;;;17.10;100.00;100545.09;5092600;28;20039;-55
2022/06/24 06:07:26;;;;;;;47.78;25.67;;;;;;;17.18;100.00;100562.44;5091725;28;20759;-56
2022/06/24 06:09:51;;;;;;;44.05;25.65;;;;;;;17.28;100.00;100561.56;5092740;28;20023;-55
2022/06/24 06:12:16;;;;;;;44.50;23.63;;;;;;;17.30;100.00;100557.22;5092357;28;20036;-56
2022/06/24 06:14:42;;;;;;;44.25;25.42;;;;;;;17.34;100.00;100555.44;5091718;28;20081;-54
2022/06/24 06:17:07;;;;;;;45.08;26.55;;;;;;;17.34;100.00;100552.84;5092474;28;20368;-55
2022/06/24 06:19:34;;;;;;;46.58;27.38;;;;;;;17.31;100.00;100551.13;5092706;28;20035;-56
2022/06/24 06:22:01;;;;;;;53.25;27.60;;;;;;;17.32;100.00;100554.59;5091785;28;20035;-56
2022/06/24 06:24:26;;;;;;;56.08;28.70;;;;;;;17.31;100.00;100553.72;5092223;28;20142;-55
2022/06/24 06:26:51;;;;;;;48.05;28.48;;;;;;;17.36;100.00;100557.19;5091702;28;20123;-55
2022/06/24 06:29:17;;;;;;;49.13;29.27;;;;;;;17.39;100.00;100564.13;5092056;28;20019;-55
2022/06/24 06:31:42;;;;;;;49.97;28.85;;;;;;;17.34;100.00;100560.66;5092623;28;20533;-55
2022/06/24 06:34:07;;;;;;;50.15;28.45;;;;;;;17.33;100.00;100561.56;5091270;28;20034;-55
2022/06/24 06:36:33;;;;;;;50.25;30.08;;;;;;;17.36;100.00;100564.13;5093517;28;20020;-54
2022/06/24 06:38:58;;;;;;;54.92;31.33;;;;;;;17.43;100.00;100569.31;5095985;28;20028;-55
2022/06/24 06:41:23;;;;;;;52.55;31.50;;;;;;;17.43;100.00;100564.13;5095246;28;20035;-55
2022/06/24 06:43:48;;;;;;;54.40;30.67;;;;;;;17.49;100.00;100568.41;5095936;28;20043;-55
2022/06/24 06:46:14;;;;;;;65.03;34.75;;;;;;;17.48;100.00;100574.53;5095414;28;20111;-55
2022/06/24 06:48:40;;;;;;;58.17;33.45;;;;;;;17.44;100.00;100576.28;5095361;28;20028;-56
2022/06/24 06:51:05;;;;;;;60.83;35.05;;;;;;;17.41;100.00;100571.06;5095871;28;20020;-55
2022/06/24 06:53:30;;;;;;;58.80;33.65;;;;;;;17.38;100.00;100571.06;5095798;28;20412;-54
2022/06/24 06:55:56;;;;;;;72.45;35.78;;;;;;;17.36;100.00;100565.00;5094831;28;20028;-55
2022/06/24 06:58:21;;;;;;;65.82;34.70;;;;;;;17.38;100.00;100565.88;5095474;28;20052;-55
2022/06/24 07:00:47;;;;;;;66.05;35.80;;;;;;;17.42;100.00;100567.59;5095523;28;20024;-54
2022/06/24 07:03:12;;;;;;;63.80;34.97;;;;;;;17.41;100.00;100565.00;5094839;28;20069;-55
2022/06/24 07:05:38;;;;;;;62.30;35.25;;;;;;;17.43;100.00;100561.50;5095561;28;20027;-54
2022/06/24 07:08:04;;;;;;;74.10;36.00;;;;;;;17.44;100.00;100558.03;5095485;28;20050;-55
2022/06/24 07:10:30;;;;;;;62.53;33.53;;;;;;;17.50;100.00;100553.69;5094702;28;20073;-56
2022/06/24 07:12:55;;;;;;;56.90;32.05;;;;;;;17.55;100.00;100551.91;5095282;28;20028;-56
2022/06/24 07:15:20;;;;;;;55.20;30.60;;;;;;;17.61;100.00;100554.47;5095162;28;20089;-56
2022/06/24 07:17:46;;;;;;;56.05;30.20;;;;;;;17.66;100.00;100550.13;5094811;28;20051;-56
2022/06/24 07:20:12;;;;;;;49.45;27.65;;;;;;;17.66;100.00;100559.69;5094958;28;20032;-53
2022/06/24 07:22:39;;;;;;;46.97;26.95;;;;;;;17.73;100.00;100558.78;5095411;28;20031;-53
2022/06/24 07:25:04;;;;;;;47.13;24.80;;;;;;;17.78;100.00;100552.66;5094200;28;20036;-53
2022/06/24 07:27:30;;;;;;;44.13;24.75;;;;;;;17.84;100.00;100545.69;5095085;28;20285;-54
2022/06/24 07:29:56;;;;;;;43.13;25.08;;;;;;;17.87;100.00;100537.84;5094917;28;20052;-53
2022/06/24 07:32:21;;;;;;;50.08;27.35;;;;;;;17.92;100.00;100531.75;5094350;28;20008;-54
2022/06/24 07:34:46;;;;;;;44.85;26.75;;;;;;;17.96;100.00;100531.75;5095061;28;20487;-53
2022/06/24 07:37:11;;;;;;;46.45;26.98;;;;;;;17.98;100.00;100525.66;5096731;28;20024;-54
2022/06/24 07:39:37;;;;;;;46.83;25.85;;;;;;;17.99;100.00;100527.38;5095173;28;20063;-55
2022/06/24 07:42:02;;;;;;;50.00;27.02;;;;;;;18.04;100.00;100540.41;5094707;28;20102;-55
2022/06/24 07:44:28;;;;;;;46.72;27.45;;;;;;;18.05;100.00;100543.00;5093863;28;20175;-55
2022/06/24 07:46:53;;;;;;;50.92;28.10;;;;;;;18.06;100.00;100543.84;5094974;28;20479;-56
2022/06/24 07:49:18;;;;;;;50.95;28.60;;;;;;;18.05;100.00;100563.88;5093775;28;20361;-56
2022/06/24 07:51:44;;;;;;;45.60;28.85;;;;;;;18.06;100.00;100562.13;5093820;28;20036;-56
2022/06/24 07:54:10;;;;;;;53.15;32.88;;;;;;;18.07;100.00;100566.47;5094396;28;20054;-56
2022/06/24 07:59:19;;;;;;;62.22;35.38;;;;;;;17.99;100.00;100573.47;5093601;28;20054;-56
2022/06/24 08:01:45;;;;;;;63.15;36.70;;;;;;;17.99;100.00;100565.66;5094608;28;20107;-55
2022/06/24 08:04:10;;;;;;;66.97;38.55;;;;;;;17.87;100.00;100567.41;5094313;28;20028;-55
2022/06/24 08:06:37;;;;;;;70.35;39.60;;;;;;;17.87;100.00;100572.63;5093616;28;20475;-55
2022/06/24 08:09:03;;;;;;;68.43;39.50;;;;;;;17.87;100.00;100575.22;5094150;28;20038;-55
2022/06/24 08:11:29;;;;;;;67.60;41.15;;;;;;;17.97;100.00;100570.84;5094140;28;20024;-56
2022/06/24 08:13:54;;;;;;;71.15;38.55;;;;;;;18.04;100.00;100567.34;5093622;28;20020;-55
2022/06/24 08:16:21;;;;;;;74.18;40.17;;;;;;;18.08;100.00;100569.06;5094284;28;20035;-55
2022/06/24 08:18:47;;;;;;;75.60;40.35;;;;;;;18.14;100.00;100567.28;5094274;28;20035;-55
2022/06/24 08:21:12;;;;;;;69.00;41.72;;;;;;;18.14;100.00;100567.28;5093099;28;20032;-55
2022/06/24 08:23:37;;;;;;;71.50;40.28;;;;;;;18.09;100.00;100570.78;5094097;28;20020;-55
2022/06/24 08:26:04;;;;;;;87.90;47.63;;;;;;;18.02;100.00;100563.88;5093646;28;20386;-55
2022/06/24 08:28:29;;;;;;;92.20;49.45;;;;;;;17.93;100.00;100563.91;5093374;28;20027;-56
2022/06/24 08:30:54;;;;;;;94.57;48.47;;;;;;;17.95;100.00;100570.00;5093976;28;20024;-55
2022/06/24 08:33:20;;;;;;;95.93;50.58;;;;;;;17.99;100.00;100563.91;5093825;28;20077;-55
2022/06/24 08:35:45;;;;;;;94.43;49.08;;;;;;;18.08;100.00;100561.22;5093401;28;20024;-55
2022/06/24 08:38:11;;;;;;;103.60;52.05;;;;;;;18.18;100.00;100561.16;5093490;28;20375;-55
2022/06/24 08:40:37;;;;;;;93.47;49.65;;;;;;;18.27;100.00;100553.31;5092837;28;20407;-56
2022/06/24 08:43:02;;;;;;;90.15;50.88;;;;;;;18.38;100.00;100567.13;5093795;28;20032;-56
2022/06/24 08:45:28;;;;;;;90.55;49.95;;;;;;;18.59;100.00;100560.00;5093649;28;20157;-56
2022/06/24 08:47:54;;;;;;;76.80;43.80;;;;;;;18.71;100.00;100559.91;5092950;28;20053;-56
2022/06/24 08:50:19;;;;;;;84.40;47.00;;;;;;;19.07;100.00;100564.84;5093479;28;20494;-56
2022/06/24 08:52:53;;;;;;;68.45;41.22;;;;;;;19.20;100.00;100569.06;5093596;28;20024;-56
2022/06/24 08:55:20;;;;;;;67.93;40.78;;;;;;;19.42;100.00;100568.81;5092277;28;20491;-56
2022/06/24 08:57:46;;;;;;;71.95;41.92;;;;;;;19.62;100.00;100565.09;5093436;28;20036;-56
2022/06/24 09:00:13;;;;;;;63.28;37.28;;;;;;;19.79;99.73;100563.13;5093055;28;20356;-56
2022/06/24 09:02:38;;;;;;;66.70;36.10;;;;;;;20.03;98.33;100561.94;5092695;28;20047;-56
2022/06/24 09:05:09;;;;;;;56.30;35.30;;;;;;;20.20;95.84;100563.47;5093097;28;20063;-56
2022/06/24 09:07:34;;;;;;;52.92;32.25;;;;;;;20.31;94.49;100555.44;5093342;28;20099;-56
2022/06/24 09:10:04;;;;;;;54.05;33.35;;;;;;;20.43;95.25;100557.88;5092372;28;20099;-56
2022/06/24 09:12:36;;;;;;;50.80;31.50;;;;;;;20.66;94.16;100562.75;5093255;28;20020;-56
2022/06/24 09:15:03;;;;;;;51.22;31.38;;;;;;;20.66;93.73;100562.75;5093159;28;20035;-56
2022/06/24 09:17:30;;;;;;;45.22;28.90;;;;;;;20.64;92.47;100566.28;5092284;28;20047;-56
2022/06/24 09:20:10;;;;;;;46.92;28.58;;;;;;;20.89;92.60;100559.75;5092904;28;20064;-56
2022/06/24 09:22:36;;;;;;;42.80;26.75;;;;;;;21.17;92.70;100556.59;5092808;28;20052;-56
2022/06/24 09:25:01;;;;;;;39.17;25.20;;;;;;;21.34;87.96;100558.94;5092905;28;20059;-56
2022/06/24 09:27:27;;;;;;;39.47;24.10;;;;;;;21.54;86.31;100563.78;5074746;28;20436;-56
2022/06/24 09:29:53;;;;;;;42.58;27.77;;;;;;;21.45;85.37;100570.97;5092301;28;20413;-56
2022/06/24 09:32:18;;;;;;;40.33;26.58;;;;;;;21.50;86.23;100566.50;5092672;28;20074;-56
2022/06/24 09:35:05;;;;;;;43.75;29.15;;;;;;;21.73;86.76;100565.16;5092868;28;20064;-56
2022/06/24 09:37:38;;;;;;;51.10;29.60;;;;;;;21.67;87.30;100563.53;5092213;28;20028;-56
2022/06/24 09:40:21;;;;;;;45.30;30.25;;;;;;;21.78;88.14;100561.56;5092659;28;20384;-56
2022/06/24 09:43:04;;;;;;;44.38;29.58;;;;;;;21.79;85.13;100560.63;5092733;28;20475;-56
2022/06/24 09:45:52;;;;;;;40.13;27.13;;;;;;;21.76;83.46;100563.34;5091878;28;20401;-56
2022/06/24 09:48:30;;;;;;;44.25;29.45;;;;;;;21.69;84.17;100565.25;5092691;28;20089;-56
2022/06/24 09:51:04;;;;;;;48.95;30.40;;;;;;;21.89;84.31;100552.59;5091977;28;20028;-56
2022/06/24 09:53:37;;;;;;;45.67;28.95;;;;;;;22.07;84.06;100554.78;5092665;28;20020;-56
2022/06/24 09:56:07;;;;;;;40.05;27.85;;;;;;;22.10;78.47;100559.09;5092795;28;20032;-54
2022/06/24 09:58:34;;;;;;;53.35;28.05;;;;;;;22.16;78.74;100556.34;5091981;28;20040;-54
2022/06/24 10:01:00;;;;;;;49.17;29.73;;;;;;;22.26;80.85;100559.59;5092666;28;20052;-54
2022/06/24 10:03:26;;;;;;;40.47;27.83;;;;;;;22.41;76.53;100559.25;5092549;28;20481;-54
2022/06/24 10:05:52;;;;;;;46.20;29.92;;;;;;;22.68;79.88;100555.13;5091784;28;20077;-54
2022/06/24 10:08:23;;;;;;;40.60;28.02;;;;;;;22.98;76.76;100557.84;5092313;28;20047;-56
2022/06/24 10:10:54;;;;;;;42.83;26.77;;;;;;;23.54;75.86;100545.81;5092749;28;20021;-57
2022/06/24 10:13:29;;;;;;;41.35;25.88;;;;;;;23.67;70.65;100548.94;5096028;28;20027;-57
2022/06/24 10:16:00;;;;;;;43.00;25.38;;;;;;;23.29;71.08;100550.91;5096476;28;20035;-56
2022/06/24 10:18:36;;;;;;;42.35;26.25;;;;;;;22.88;72.49;100544.97;5096373;28;20089;-56
2022/06/24 10:21:05;;;;;;;41.22;25.35;;;;;;;22.53;73.72;100545.84;5095724;28;20024;-56
2022/06/24 10:23:41;;;;;;;39.83;26.42;;;;;;;22.38;75.25;100551.47;5096488;28;20027;-57
2022/06/24 10:26:14;;;;;;;42.97;26.92;;;;;;;22.48;77.95;100552.13;5095296;28;20031;-56
2022/06/24 10:29:04;;;;;;;39.13;24.73;;;;;;;23.19;74.58;100558.19;5096278;28;20032;-56
2022/06/24 10:31:41;;;;;;;35.55;23.25;;;;;;;23.20;73.61;100557.28;5096301;28;20024;-56
2022/06/24 10:34:07;;;;;;;34.60;22.20;;;;;;;22.91;72.82;100571.19;5095330;28;20038;-56
2022/06/24 10:36:32;;;;;;;25.77;16.67;;;;;;;22.19;72.00;100569.38;5096182;28;20099;-56
2022/06/24 10:39:12;;;;;;;19.10;11.43;;;;;;;21.58;74.71;100590.81;5095951;28;20391;-56
2022/06/24 10:41:39;;;;;;;17.77;9.55;;;;;;;20.69;77.31;100598.47;5095292;28;20107;-54
2022/06/24 10:44:30;;;;;;;24.75;10.00;;;;;;;19.87;83.40;100602.28;5096073;28;20031;-56
2022/06/24 10:47:04;;;;;;;23.15;10.73;;;;;;;19.02;87.67;100601.44;5095949;28;20032;-58
2022/06/24 10:49:51;;;;;;;19.48;10.23;;;;;;;18.53;90.99;100601.81;5095824;28;20026;-57
2022/06/24 10:52:41;;;;;;;22.45;12.65;;;;;;;18.27;93.36;100601.13;5095766;28;20039;-57
2022/06/24 10:55:24;;;;;;;20.10;11.57;;;;;;;18.05;95.52;100597.78;5085786;28;20032;-57
2022/06/24 10:58:04;;;;;;;21.98;10.85;;;;;;;17.96;97.28;100605.66;5095616;28;20048;-57
2022/06/24 11:00:56;;;;;;;20.80;9.65;;;;;;;17.87;98.53;100608.22;5095518;28;20545;-58
2022/06/24 11:03:35;;;;;;;13.60;7.82;;;;;;;17.72;97.48;100611.78;5095015;28;20035;-57
2022/06/24 11:06:01;;;;;;;19.08;8.65;;;;;;;17.59;97.04;100608.34;5095438;28;20051;-57
2022/06/24 11:08:26;;;;;;;13.10;8.43;;;;;;;17.54;96.08;100592.72;5094617;28;20794;-57
2022/06/24 11:10:53;;;;;;;19.33;9.63;;;;;;;17.63;99.11;100583.16;5095425;28;20020;-58
2022/06/24 11:13:21;;;;;;;18.60;10.52;;;;;;;17.64;99.30;100577.94;5095287;28;20096;-57
2022/06/24 11:15:50;;;;;;;20.08;11.00;;;;;;;17.76;100.00;100579.63;5094759;28;20107;-57
2022/06/24 11:18:21;;;;;;;22.42;11.65;;;;;;;17.86;99.46;100572.63;5095026;28;20388;-57
2022/06/24 11:20:47;;;;;;;19.15;11.50;;;;;;;17.89;98.88;100583.03;5095157;28;20490;-57